Time;durP1;ratioP1;P1;durP2;ratioP2;P2;SDS_P1;SDS_P2;PMS_P1;PMS_P2;Temp;Humidity;BMP_temperature;BMP_pressure;BME280_temperature;BME280_humidity;BME280_pressure;Samples;Min_cycle;Max_cycle;Signal;HPM_P1;HPM_P2
2022/02/20 00:00:16;;;;;;;18.17;10.03;;;;;;;1.69;100.00;99950.34;5034951;28;20124;-75
2022/02/20 00:02:42;;;;;;;16.08;9.15;;;;;;;1.66;100.00;99942.72;5051816;28;20134;-76
2022/02/20 00:05:08;;;;;;;;;;;;;;;1.71;100.00;99944.97;5035731;28;20389;-76
2022/02/20 00:07:33;;;;;;;17.98;9.65;;;;;;;1.67;100.00;99947.00;5053247;28;19919;-75
2022/02/20 00:09:58;;;;;;;20.83;9.55;;;;;;;1.64;100.00;99938.53;5035001;28;20102;-75
2022/02/20 00:12:24;;;;;;;18.03;9.40;;;;;;;1.69;100.00;99954.78;5035047;28;20036;-75
2022/02/20 00:14:49;;;;;;;17.08;9.85;;;;;;;1.68;100.00;99940.75;5035184;28;20072;-75
2022/02/20 00:17:15;;;;;;;18.77;9.45;;;;;;;1.71;100.00;99946.75;5051694;28;20035;-75
2022/02/20 00:19:42;;;;;;;18.85;10.38;;;;;;;1.64;100.00;99936.72;5034961;28;20044;-75
2022/02/20 00:22:07;;;;;;;17.35;10.30;;;;;;;1.65;100.00;99943.66;5035398;28;20086;-76
2022/02/20 00:24:32;;;;;;;21.02;10.82;;;;;;;1.72;100.00;99943.16;5035261;28;20044;-76
2022/02/20 00:26:58;;;;;;;25.73;11.23;;;;;;;1.71;100.00;99936.22;5035238;28;20108;-76
2022/02/20 00:29:24;;;;;;;20.60;11.30;;;;;;;1.70;100.00;99932.75;5051426;28;20448;-75
2022/02/20 00:31:51;;;;;;;23.25;12.35;;;;;;;1.68;100.00;99935.50;5051775;28;20021;-75
2022/02/20 00:34:16;;;;;;;19.77;11.50;;;;;;;1.71;100.00;99939.72;5034836;28;20036;-76
2022/02/20 00:36:43;;;;;;;24.23;11.65;;;;;;;1.76;100.00;99941.97;5052638;28;20271;-75
2022/02/20 00:39:09;;;;;;;20.77;11.88;;;;;;;1.72;100.00;99937.91;5051040;28;20036;-76
2022/02/20 00:41:34;;;;;;;26.07;12.00;;;;;;;1.76;100.00;99934.91;5035044;28;20112;-75
2022/02/20 00:44:00;;;;;;;25.40;13.27;;;;;;;1.78;100.00;99946.13;5051747;28;20037;-75
2022/02/20 00:46:26;;;;;;;25.55;11.77;;;;;;;1.81;100.00;99955.56;5052498;28;20021;-75
2022/02/20 00:48:51;;;;;;;26.38;12.48;;;;;;;1.80;100.00;99956.53;5034311;28;20044;-76
2022/02/20 00:51:17;;;;;;;23.60;12.33;;;;;;;1.78;100.00;99961.06;5051083;28;20036;-75
2022/02/20 00:53:42;;;;;;;23.05;11.23;;;;;;;1.80;100.00;99960.00;5034242;28;20268;-76
2022/02/20 00:56:08;;;;;;;22.90;12.15;;;;;;;1.76;100.00;99955.94;5051107;28;20028;-75
2022/02/20 00:58:34;;;;;;;24.00;11.68;;;;;;;1.80;100.00;99959.16;5034310;28;20029;-75
2022/02/20 01:00:59;;;;;;;28.27;13.03;;;;;;;1.76;100.00;99957.75;5051042;28;20033;-77
2022/02/20 01:03:25;;;;;;;25.77;12.43;;;;;;;1.75;100.00;99958.69;5034521;28;20771;-76
2022/02/20 01:05:51;;;;;;;26.73;14.03;;;;;;;1.78;100.00;99961.06;5050671;28;20090;-76
2022/02/20 01:08:17;;;;;;;24.60;12.57;;;;;;;1.80;100.00;99960.00;5051028;28;20285;-77
2022/02/20 01:10:45;;;;;;;27.40;13.35;;;;;;;1.80;100.00;99960.00;5050839;28;20100;-75
2022/02/20 01:13:10;;;;;;;25.00;13.32;;;;;;;1.83;100.00;99964.19;5034599;28;20064;-76
2022/02/20 01:15:35;;;;;;;29.57;13.47;;;;;;;1.84;100.00;99968.47;5034214;28;20482;-76
2022/02/20 01:18:01;;;;;;;26.65;12.90;;;;;;;1.84;100.00;99971.09;5052498;28;20037;-76
2022/02/20 01:20:26;;;;;;;27.42;13.50;;;;;;;1.83;100.00;99972.09;5051434;28;20033;-76
2022/02/20 01:22:52;;;;;;;26.17;14.27;;;;;;;1.82;100.00;99970.41;5034259;28;20098;-76
2022/02/20 01:25:17;;;;;;;27.33;12.95;;;;;;;1.85;100.00;99967.50;5033806;28;20494;-76
2022/02/20 01:27:43;;;;;;;30.43;13.43;;;;;;;1.86;100.00;99975.28;5034599;28;20041;-76
2022/02/20 01:30:09;;;;;;;28.48;13.65;;;;;;;1.83;100.00;99974.72;5033929;28;20505;-75
2022/02/20 01:32:35;;;;;;;32.30;15.30;;;;;;;1.83;100.00;99979.97;5034280;28;20055;-76
2022/02/20 01:35:00;;;;;;;32.43;14.83;;;;;;;1.82;100.00;99970.41;5051877;28;20505;-78
2022/02/20 01:37:25;;;;;;;31.60;15.30;;;;;;;1.81;100.00;99974.00;5052567;28;20647;-75
2022/02/20 01:39:51;;;;;;;30.80;15.70;;;;;;;1.81;100.00;99974.00;5052224;28;20028;-77
2022/02/20 01:42:21;;;;;;;29.60;15.65;;;;;;;1.80;100.00;99974.94;5052549;28;20076;-76
2022/02/20 01:44:46;;;;;;;31.70;16.05;;;;;;;1.90;100.00;99978.50;5036208;28;20029;-78
2022/02/20 01:47:14;;;;;;;31.42;15.50;;;;;;;1.82;100.00;99973.03;5052891;28;20029;-75
2022/02/20 01:49:41;;;;;;;30.92;14.38;;;;;;;1.82;100.00;99979.13;5035961;28;20047;-77
2022/02/20 01:52:06;;;;;;;28.48;15.02;;;;;;;1.84;100.00;99981.63;5035528;28;20100;-77
2022/02/20 01:54:32;;;;;;;30.27;14.65;;;;;;;1.79;100.00;99979.38;5035659;28;20032;-78
2022/02/20 01:56:58;;;;;;;28.25;14.20;;;;;;;1.76;100.00;99974.38;5052820;28;20027;-77
2022/02/20 01:59:36;;;;;;;35.75;15.65;;;;;;;1.78;100.00;99982.13;5036243;28;20043;-79
2022/02/20 02:02:24;;;;;;;35.42;14.38;;;;;;;1.84;100.00;99989.53;5049072;28;20108;-77
2022/02/20 02:04:58;;;;;;;28.77;14.20;;;;;;;1.76;100.00;99989.34;5051526;28;20028;-77
2022/02/20 02:07:27;;;;;;;29.40;14.77;;;;;;;1.76;100.00;99990.16;5035192;28;20041;-76
2022/02/20 02:10:21;;;;;;;25.40;13.18;;;;;;;1.71;100.00;99992.34;5050652;28;20552;-77
2022/02/20 02:12:58;;;;;;;26.25;13.10;;;;;;;1.73;100.00;99997.47;5036278;28;20037;-77
2022/02/20 02:15:50;;;;;;;28.00;12.32;;;;;;;1.65;100.00;99996.28;5036140;28;20112;-77
2022/02/20 02:18:42;;;;;;;26.33;11.80;;;;;;;1.59;100.00;100004.69;5042330;28;20127;-77
2022/02/20 02:21:33;;;;;;;21.27;11.73;;;;;;;1.52;100.00;99992.94;5044305;28;20059;-77
2022/02/20 02:24:18;;;;;;;21.77;11.18;;;;;;;1.51;100.00;100001.81;5049991;28;20412;-77
2022/02/20 02:26:51;;;;;;;20.38;11.57;;;;;;;1.54;100.00;100001.56;5034391;28;20029;-77
2022/02/20 02:29:30;;;;;;;20.35;10.48;;;;;;;1.56;100.00;100004.91;5035281;28;20033;-77
2022/02/20 02:31:55;;;;;;;21.50;10.80;;;;;;;1.51;100.00;100007.09;5033862;28;20043;-77
2022/02/20 02:34:21;;;;;;;17.50;9.73;;;;;;;1.54;100.00;100006.81;5036323;28;20028;-77
2022/02/20 02:36:49;;;;;;;22.88;11.45;;;;;;;1.52;100.00;100011.38;5037818;28;20083;-77
2022/02/20 02:39:16;;;;;;;23.30;11.15;;;;;;;1.53;100.00;100005.16;5037339;28;20025;-78
2022/02/20 02:41:42;;;;;;;23.40;11.57;;;;;;;1.48;100.00;99995.00;5034144;28;20386;-77
2022/02/20 02:44:08;;;;;;;23.25;12.40;;;;;;;1.53;100.00;99999.91;5037328;28;20171;-77
2022/02/20 02:46:33;;;;;;;25.65;11.30;;;;;;;1.51;100.00;99996.56;5037132;28;20039;-78
2022/02/20 02:49:04;;;;;;;22.08;11.27;;;;;;;1.46;100.00;99990.84;5037916;28;20025;-77
2022/02/20 02:51:31;;;;;;;23.95;11.35;;;;;;;1.51;100.00;99995.72;5037353;28;20029;-77
2022/02/20 02:53:57;;;;;;;23.45;10.38;;;;;;;1.54;100.00;99998.94;5037388;28;20025;-77
2022/02/20 02:56:22;;;;;;;;;;;;;;;1.59;100.00;100004.69;5037709;28;20040;-77
2022/02/20 02:58:50;;;;;;;22.40;11.38;;;;;;;1.59;100.00;100003.81;5037147;28;19908;-77
2022/02/20 03:01:16;;;;;;;20.27;10.35;;;;;;;1.57;100.00;100001.34;5053596;28;20033;-77
2022/02/20 03:03:42;;;;;;;27.52;11.93;;;;;;;1.53;100.00;100007.78;5037135;28;20025;-77
2022/02/20 03:06:14;;;;;;;21.75;9.68;;;;;;;1.49;100.00;100003.72;5053865;28;20025;-76
2022/02/20 03:08:40;;;;;;;23.10;10.93;;;;;;;1.49;100.00;100001.09;5036703;28;20036;-78
2022/02/20 03:11:06;;;;;;;23.50;12.63;;;;;;;1.43;100.00;100012.13;5037107;28;20027;-77
2022/02/20 03:13:33;;;;;;;24.38;11.38;;;;;;;1.34;100.00;100007.59;5059561;23;20421;-80
2022/02/20 03:16:01;;;;;;;24.75;10.40;;;;;;;1.34;100.00;100008.44;5047355;28;20021;-80
2022/02/20 03:18:30;;;;;;;18.77;10.18;;;;;;;1.30;100.00;100012.25;5056090;28;20086;-80
2022/02/20 03:20:57;;;;;;;23.67;10.88;;;;;;;1.14;100.00;100004.72;5055961;28;20036;-81
2022/02/20 03:23:22;;;;;;;24.95;11.15;;;;;;;1.17;100.00;100006.28;5055749;28;20032;-80
2022/02/20 03:25:48;;;;;;;20.65;10.38;;;;;;;1.20;100.00;100019.19;5038655;28;20025;-81
2022/02/20 03:28:14;;;;;;;18.77;9.23;;;;;;;1.17;100.00;100012.38;5038763;28;20128;-81
2022/02/20 03:30:47;;;;;;;19.73;9.02;;;;;;;1.10;100.00;99998.06;5039783;28;20025;-80
2022/02/20 03:33:15;;;;;;;19.15;8.82;;;;;;;1.12;100.00;100011.06;5038513;28;20035;-79
2022/02/20 03:35:42;;;;;;;22.58;9.43;;;;;;;1.04;100.00;100017.75;5055058;28;20025;-80
2022/02/20 03:38:10;;;;;;;20.25;9.15;;;;;;;1.00;100.00;100012.84;5055071;28;20083;-81
2022/02/20 03:40:38;;;;;;;19.98;9.63;;;;;;;0.95;100.00;100001.88;5038768;28;20029;-80
2022/02/20 03:43:05;;;;;;;20.63;8.25;;;;;;;0.92;100.00;100015.25;5038411;28;20033;-80
2022/02/20 03:45:52;;;;;;;22.60;9.77;;;;;;;0.90;100.00;100017.16;5041058;28;20021;-80
2022/02/20 03:48:17;;;;;;;21.05;8.68;;;;;;;0.82;100.00;100021.22;5038087;28;20044;-79
2022/02/20 03:50:51;;;;;;;18.38;8.75;;;;;;;0.83;100.00;100038.63;5054712;28;20115;-80
2022/02/20 03:53:17;;;;;;;19.48;8.63;;;;;;;0.80;100.00;100036.25;5038250;28;20029;-80
2022/02/20 03:55:43;;;;;;;18.10;9.40;;;;;;;0.82;100.00;100046.66;5037953;28;20028;-80
2022/02/20 03:58:09;;;;;;;18.38;8.55;;;;;;;0.81;100.00;100064.19;5038196;28;20029;-80
2022/02/20 04:00:45;;;;;;;16.83;8.32;;;;;;;0.93;100.00;100072.94;5054211;28;20055;-78
2022/02/20 04:03:25;;;;;;;18.88;8.27;;;;;;;0.97;100.00;100081.44;5039871;28;20033;-79
2022/02/20 04:05:53;;;;;;;15.65;7.90;;;;;;;1.01;100.00;100082.88;5037955;28;20025;-79
2022/02/20 04:08:20;;;;;;;15.05;7.57;;;;;;;1.06;100.00;100091.25;5037801;28;20033;-80
2022/02/20 04:10:49;;;;;;;17.77;7.85;;;;;;;0.97;100.00;100099.84;5037835;28;20078;-80
2022/02/20 04:13:23;;;;;;;15.43;7.80;;;;;;;1.03;100.00;100091.47;5042714;28;20025;-79
2022/02/20 04:15:52;;;;;;;15.55;7.55;;;;;;;1.08;100.00;100097.25;5041799;28;20049;-80
2022/02/20 04:18:22;;;;;;;15.63;7.38;;;;;;;1.08;100.00;100099.88;5041830;28;20032;-79
2022/02/20 04:21:05;;;;;;;17.60;9.05;;;;;;;1.15;100.00;100108.97;5042099;28;20033;-79
2022/02/20 04:23:33;;;;;;;15.00;7.82;;;;;;;1.08;100.00;100117.41;5038462;28;20033;-79
2022/02/20 04:26:01;;;;;;;16.20;7.78;;;;;;;1.06;100.00;100112.28;5037315;28;20017;-79
2022/02/20 04:28:30;;;;;;;15.43;8.10;;;;;;;1.05;100.00;100108.81;5036979;28;20031;-79
2022/02/20 04:30:56;;;;;;;16.08;8.13;;;;;;;1.03;100.00;100107.25;5052915;28;20112;-80
2022/02/20 04:33:21;;;;;;;15.18;7.00;;;;;;;1.05;100.00;100115.84;5036540;28;20143;-80
2022/02/20 04:35:49;;;;;;;19.80;8.75;;;;;;;1.07;100.00;100111.31;5036703;28;20073;-80
2022/02/20 04:38:14;;;;;;;14.93;8.15;;;;;;;1.13;100.00;100116.13;5069674;28;20464;-79
2022/02/20 04:40:40;;;;;;;14.40;8.02;;;;;;;0.99;100.00;100106.66;5036200;28;20032;-79
2022/02/20 04:43:11;;;;;;;16.58;7.75;;;;;;;1.05;100.00;100115.84;5053594;28;20402;-79
2022/02/20 04:45:37;;;;;;;15.15;7.28;;;;;;;0.94;100.00;100100.09;5036657;28;20036;-80
2022/02/20 04:48:09;;;;;;;15.73;7.53;;;;;;;0.93;100.00;100101.84;5052967;28;20024;-80
2022/02/20 04:50:35;;;;;;;16.70;7.65;;;;;;;0.98;100.00;100110.25;5036434;28;20040;-79
2022/02/20 04:53:12;;;;;;;20.40;8.15;;;;;;;1.01;100.00;100119.69;5052883;28;20025;-78
2022/02/20 04:55:37;;;;;;;13.77;7.35;;;;;;;1.01;100.00;100119.69;5035409;28;20401;-79
2022/02/20 04:58:03;;;;;;;18.10;7.72;;;;;;;1.02;100.00;100129.25;5036041;28;20064;-79
2022/02/20 05:00:29;;;;;;;13.48;6.75;;;;;;;0.98;100.00;100119.91;5052273;28;20115;-80
2022/02/20 05:03:01;;;;;;;19.13;8.00;;;;;;;1.00;100.00;100121.47;5052789;28;20028;-80
2022/02/20 05:05:40;;;;;;;15.85;8.35;;;;;;;1.06;100.00;100128.06;5038001;28;20040;-80
2022/02/20 05:08:06;;;;;;;14.45;7.13;;;;;;;1.14;100.00;100127.47;5035998;28;20029;-80
2022/02/20 05:10:31;;;;;;;16.13;6.55;;;;;;;1.15;100.00;100130.00;5035596;28;20036;-79
2022/02/20 05:12:57;;;;;;;15.88;6.00;;;;;;;1.15;100.00;100122.09;5035409;28;20029;-79
2022/02/20 05:15:22;;;;;;;11.98;5.95;;;;;;;1.16;100.00;100126.41;5052583;28;20520;-80
2022/02/20 05:17:55;;;;;;;16.90;6.82;;;;;;;1.10;100.00;100108.47;5052750;28;20735;-80
2022/02/20 05:20:21;;;;;;;14.57;6.10;;;;;;;1.18;100.00;100127.13;5052463;28;20059;-80
2022/02/20 05:22:50;;;;;;;13.57;6.00;;;;;;;1.14;100.00;100120.41;5036291;28;20061;-79
2022/02/20 05:25:17;;;;;;;11.82;5.43;;;;;;;1.17;100.00;100107.06;5036199;28;20046;-80
2022/02/20 05:27:44;;;;;;;10.15;5.60;;;;;;;1.16;100.00;100112.41;5036271;28;20029;-80
2022/02/20 05:30:12;;;;;;;9.70;4.15;;;;;;;1.15;100.00;100106.31;5035500;28;20025;-80
2022/02/20 05:32:39;;;;;;;6.90;4.00;;;;;;;1.19;100.00;100120.88;5052438;28;20044;-80
2022/02/20 05:35:14;;;;;;;17.38;5.63;;;;;;;1.23;100.00;100117.06;5052093;28;20037;-80
2022/02/20 05:37:47;;;;;;;9.52;5.00;;;;;;;1.27;100.00;100109.81;5035857;28;20093;-79
2022/02/20 05:40:17;;;;;;;13.90;5.75;;;;;;;1.27;100.00;100108.00;5051912;28;20123;-80
2022/02/20 05:42:54;;;;;;;12.95;5.75;;;;;;;1.30;100.00;100106.09;5037073;28;20033;-80
2022/02/20 05:45:21;;;;;;;12.82;4.63;;;;;;;1.32;100.00;100106.81;5051853;28;20055;-79
2022/02/20 05:47:47;;;;;;;10.68;5.93;;;;;;;1.19;100.00;100094.59;5035690;28;20060;-80
2022/02/20 05:50:13;;;;;;;13.15;4.80;;;;;;;1.27;100.00;100094.03;5035282;28;20032;-80
2022/02/20 05:52:42;;;;;;;10.68;5.60;;;;;;;1.33;100.00;100104.06;5036151;28;20021;-80
2022/02/20 05:55:10;;;;;;;11.07;5.18;;;;;;;1.33;100.00;100109.31;5036297;28;20136;-80
2022/02/20 05:57:45;;;;;;;11.93;5.82;;;;;;;1.36;100.00;100098.56;5040095;28;20032;-81
2022/02/20 06:00:12;;;;;;;13.02;7.28;;;;;;;1.39;100.00;100102.75;5038433;28;20025;-81
2022/02/20 06:02:54;;;;;;;15.05;8.27;;;;;;;1.36;100.00;100105.59;5056339;28;20033;-81
2022/02/20 06:05:20;;;;;;;16.67;7.53;;;;;;;1.37;100.00;100094.16;5038857;28;20033;-81
2022/02/20 06:08:12;;;;;;;16.25;7.70;;;;;;;1.35;100.00;100090.78;5055571;28;20082;-81
2022/02/20 06:11:06;;;;;;;16.23;7.20;;;;;;;1.38;100.00;100085.28;5042902;28;20067;-80
2022/02/20 06:13:46;;;;;;;16.23;6.60;;;;;;;1.40;100.00;100078.09;5056834;28;20033;-80
2022/02/20 06:16:32;;;;;;;;;;;;;;;1.34;100.00;100073.34;5042122;28;20066;-80
2022/02/20 06:19:01;;;;;;;22.90;7.60;;;;;;;1.29;100.00;100071.06;5038697;28;20377;-80
2022/02/20 06:21:43;;;;;;;17.15;7.00;;;;;;;1.25;100.00;100070.47;5040564;28;20112;-80
2022/02/20 06:24:41;;;;;;;12.30;6.15;;;;;;;1.26;100.00;100059.00;5022549;28;20055;-80
2022/02/20 06:27:10;;;;;;;47.83;8.30;;;;;;;1.27;100.00;100059.84;5038550;28;20036;-79
2022/02/20 06:29:36;;;;;;;14.60;7.22;;;;;;;1.27;100.00;100058.03;5038695;28;20025;-80
2022/02/20 06:32:04;;;;;;;;;;;;;;;1.29;100.00;100062.31;5038818;28;20040;-80
2022/02/20 06:34:32;;;;;;;21.67;8.65;;;;;;;1.27;100.00;100058.03;5037707;28;19908;-80
2022/02/20 06:36:57;;;;;;;18.90;8.38;;;;;;;1.25;100.00;100051.22;5053968;28;20056;-79
2022/02/20 06:39:23;;;;;;;13.80;7.40;;;;;;;1.27;100.00;100052.78;5053788;28;20032;-80
2022/02/20 06:41:49;;;;;;;15.68;6.95;;;;;;;1.29;100.00;100047.41;5054020;28;20040;-80
2022/02/20 06:44:15;;;;;;;14.02;6.50;;;;;;;1.27;100.00;100052.78;5053209;28;20136;-79
2022/02/20 06:46:55;;;;;;;12.40;5.82;;;;;;;1.26;100.00;100045.00;5040082;28;20136;-81
2022/02/20 06:49:26;;;;;;;15.77;7.82;;;;;;;1.25;100.00;100052.06;5018402;28;20036;-79
2022/02/20 06:51:55;;;;;;;14.57;6.45;;;;;;;1.22;100.00;100043.59;5018930;28;20034;-79
2022/02/20 06:54:33;;;;;;;17.77;8.43;;;;;;;1.26;100.00;100055.50;5033733;28;20030;-79
2022/02/20 06:57:05;;;;;;;12.48;6.47;;;;;;;1.24;100.00;100058.28;5034858;28;20026;-79
2022/02/20 06:59:30;;;;;;;11.57;6.22;;;;;;;1.22;100.00;100059.38;5013180;28;20045;-80
2022/02/20 07:01:56;;;;;;;13.67;7.07;;;;;;;1.25;100.00;100057.31;5011302;28;20033;-80
2022/02/20 07:04:21;;;;;;;19.93;8.40;;;;;;;1.25;100.00;100069.63;5016668;28;20284;-79
2022/02/20 07:06:47;;;;;;;10.30;5.30;;;;;;;1.30;100.00;100064.84;5036327;28;20064;-79
2022/02/20 07:09:13;;;;;;;9.60;5.30;;;;;;;1.39;100.00;100071.19;5034188;28;20056;-79
2022/02/20 07:11:39;;;;;;;12.15;6.15;;;;;;;1.40;100.00;100072.84;5016720;28;20149;-79
2022/02/20 07:14:06;;;;;;;12.98;5.85;;;;;;;1.35;100.00;100067.13;5031570;28;20045;-80
2022/02/20 07:16:31;;;;;;;;;;;;;;;1.40;100.00;100068.41;5032593;28;20470;-79
2022/02/20 07:18:57;;;;;;;13.55;5.53;;;;;;;1.43;100.00;100067.38;5034435;28;19939;-79
2022/02/20 07:21:24;;;;;;;13.23;6.72;;;;;;;1.37;100.00;100063.41;5036489;28;20022;-79
2022/02/20 07:23:51;;;;;;;13.63;5.55;;;;;;;1.36;100.00;100060.88;5032470;28;20038;-79
2022/02/20 07:26:16;;;;;;;14.80;5.60;;;;;;;1.39;100.00;100065.94;5019345;28;20041;-79
2022/02/20 07:28:41;;;;;;;9.80;5.30;;;;;;;1.41;100.00;100061.38;5036082;28;20041;-79
2022/02/20 07:31:07;;;;;;;14.95;5.38;;;;;;;1.31;100.00;100050.75;5036608;28;20088;-80
2022/02/20 07:33:32;;;;;;;15.30;5.47;;;;;;;1.34;100.00;100068.91;5020103;28;20041;-79
2022/02/20 07:35:58;;;;;;;15.60;5.78;;;;;;;1.33;100.00;100067.22;5019297;28;20051;-79
2022/02/20 07:38:24;;;;;;;13.43;5.57;;;;;;;1.41;100.00;100075.38;5018749;28;20140;-78
2022/02/20 07:40:49;;;;;;;16.48;7.47;;;;;;;1.44;100.00;100084.81;5035820;28;20095;-79
2022/02/20 07:43:14;;;;;;;17.67;6.13;;;;;;;1.34;100.00;100063.66;5035543;28;20033;-79
2022/02/20 07:45:40;;;;;;;16.47;7.73;;;;;;;1.36;100.00;100068.78;5018883;28;20633;-79
2022/02/20 07:48:05;;;;;;;18.85;7.18;;;;;;;1.44;100.00;100067.22;5019153;28;20049;-79
2022/02/20 07:50:34;;;;;;;22.95;8.57;;;;;;;1.52;100.00;100071.88;5017900;28;20025;-78
2022/02/20 07:53:01;;;;;;;19.13;8.60;;;;;;;1.66;100.00;100070.78;5018994;28;20037;-79
2022/02/20 07:55:29;;;;;;;17.95;7.97;;;;;;;1.68;100.00;100059.19;5019027;28;20030;-79
2022/02/20 07:57:55;;;;;;;20.23;9.07;;;;;;;1.61;100.00;100060.63;5035591;28;20524;-79
2022/02/20 08:00:26;;;;;;;21.25;9.57;;;;;;;1.71;100.00;100066.03;5018348;28;20033;-79
2022/02/20 08:02:51;;;;;;;21.77;9.93;;;;;;;1.73;100.00;100048.28;5035104;28;20041;-79
2022/02/20 08:05:17;;;;;;;22.73;9.07;;;;;;;1.73;100.00;100044.84;5018871;28;20444;-79
2022/02/20 08:07:42;;;;;;;21.42;9.27;;;;;;;1.67;100.00;100036.47;5018744;28;20053;-79
2022/02/20 08:10:08;;;;;;;20.60;8.43;;;;;;;1.74;100.00;100039.44;5018699;28;20027;-79
2022/02/20 08:12:33;;;;;;;23.98;9.13;;;;;;;1.85;100.00;100041.19;5018175;28;20037;-79
2022/02/20 08:14:59;;;;;;;23.25;10.98;;;;;;;1.80;100.00;100040.75;5018320;28;20033;-79
2022/02/20 08:17:25;;;;;;;21.60;9.25;;;;;;;1.80;100.00;100017.91;5018112;28;20026;-79
2022/02/20 08:19:51;;;;;;;25.13;9.07;;;;;;;1.85;100.00;100013.09;5034969;28;20033;-79
2022/02/20 08:22:16;;;;;;;22.98;7.85;;;;;;;1.89;100.00;100017.13;5017967;28;20072;-79
2022/02/20 08:24:43;;;;;;;21.33;9.88;;;;;;;1.87;100.00;100011.19;5018385;28;20449;-79
2022/02/20 08:27:09;;;;;;;23.17;8.93;;;;;;;1.99;100.00;100016.41;5035823;28;20082;-79
2022/02/20 08:29:35;;;;;;;19.02;10.07;;;;;;;1.89;100.00;100008.41;5017950;28;20025;-79
2022/02/20 08:32:02;;;;;;;20.70;9.00;;;;;;;1.96;100.00;99999.06;5035948;28;20112;-79
2022/02/20 08:34:29;;;;;;;20.73;8.73;;;;;;;2.08;100.00;99995.44;5036305;28;20083;-79
2022/02/20 08:36:55;;;;;;;20.13;9.23;;;;;;;2.06;100.00;99981.56;5017625;28;20037;-79
2022/02/20 08:39:20;;;;;;;38.00;10.25;;;;;;;2.15;100.00;99966.78;5017422;28;20108;-79
2022/02/20 08:41:46;;;;;;;22.02;8.05;;;;;;;2.08;100.00;99962.97;5034013;28;20064;-79
2022/02/20 08:44:12;;;;;;;18.90;8.45;;;;;;;2.20;100.00;99966.38;5017543;28;20025;-79
2022/02/20 08:46:37;;;;;;;20.93;7.67;;;;;;;2.25;100.00;99956.34;5033996;28;20036;-78
2022/02/20 08:49:03;;;;;;;20.63;8.83;;;;;;;2.29;100.00;99942.78;5017161;28;20276;-78
2022/02/20 08:51:28;;;;;;;15.77;8.55;;;;;;;2.21;100.00;99926.78;5016318;28;20029;-78
2022/02/20 08:53:53;;;;;;;17.80;7.23;;;;;;;2.19;100.00;99912.06;5017590;28;20036;-79
2022/02/20 08:56:20;;;;;;;15.25;7.50;;;;;;;2.23;100.00;99918.75;5021248;28;20394;-79
2022/02/20 08:58:45;;;;;;;18.83;7.47;;;;;;;2.30;100.00;99904.09;5037646;28;20044;-79
2022/02/20 09:01:11;;;;;;;14.73;7.55;;;;;;;2.30;100.00;99896.19;5037369;28;20064;-80
2022/02/20 09:03:36;;;;;;;15.93;8.33;;;;;;;2.25;100.00;99886.03;5020453;28;20573;-79
2022/02/20 09:06:02;;;;;;;13.80;6.13;;;;;;;2.31;100.00;99879.41;5020702;28;20296;-79
2022/02/20 09:08:28;;;;;;;14.43;6.60;;;;;;;2.13;100.00;99850.22;5020189;28;20021;-79
2022/02/20 09:10:53;;;;;;;14.77;6.78;;;;;;;2.13;100.00;99850.22;5036890;28;20037;-79
2022/02/20 09:13:19;;;;;;;16.60;7.38;;;;;;;2.19;100.00;99847.06;5042477;23;20094;-79
2022/02/20 09:15:44;;;;;;;18.50;6.80;;;;;;;2.18;100.00;99841.91;5057280;28;20033;-79
2022/02/20 09:18:10;;;;;;;15.85;6.55;;;;;;;2.14;100.00;99825.53;5055327;28;20036;-79
2022/02/20 09:20:35;;;;;;;16.60;7.18;;;;;;;2.33;100.00;99825.63;5053613;28;20086;-79
2022/02/20 09:23:01;;;;;;;15.32;8.13;;;;;;;2.22;100.00;99804.63;5037143;28;20052;-79
2022/02/20 09:25:27;;;;;;;17.48;8.13;;;;;;;2.28;100.00;99805.94;5054257;28;20041;-79
2022/02/20 09:27:52;;;;;;;14.87;7.53;;;;;;;2.14;100.00;99783.41;5052337;28;20454;-79
2022/02/20 09:30:19;;;;;;;15.68;8.15;;;;;;;2.23;100.00;99789.69;5035278;28;20294;-79
2022/02/20 09:32:46;;;;;;;12.88;7.20;;;;;;;2.23;100.00;99769.44;5035101;28;20032;-79
2022/02/20 09:35:12;;;;;;;14.73;7.95;;;;;;;2.28;100.00;99774.31;5035100;28;20044;-79
2022/02/20 09:37:38;;;;;;;11.93;6.65;;;;;;;2.32;100.00;99765.19;5035019;28;20016;-79
2022/02/20 09:40:04;;;;;;;12.40;7.00;;;;;;;2.41;100.00;99745.97;5051370;28;20037;-79
2022/02/20 09:42:30;;;;;;;13.57;6.60;;;;;;;2.35;100.00;99733.31;5052440;28;20028;-79
2022/02/20 09:44:55;;;;;;;10.30;6.57;;;;;;;2.47;100.00;99729.59;5034973;28;20386;-79
2022/02/20 09:47:30;;;;;;;12.93;6.10;;;;;;;2.45;100.00;99715.72;5051715;28;20025;-79
2022/02/20 09:50:00;;;;;;;12.13;6.88;;;;;;;2.50;100.00;99705.59;5034923;28;20287;-79
2022/02/20 09:52:27;;;;;;;9.25;5.40;;;;;;;2.39;100.00;99692.56;5035153;28;20136;-79
2022/02/20 09:54:52;;;;;;;9.82;5.57;;;;;;;2.30;100.00;99693.38;5034662;28;20367;-79
2022/02/20 09:57:17;;;;;;;10.43;6.57;;;;;;;2.36;100.00;99677.00;5034945;28;20033;-79
2022/02/20 09:59:43;;;;;;;9.27;5.07;;;;;;;2.23;100.00;99658.84;5051126;28;20684;-79
2022/02/20 10:02:12;;;;;;;6.60;4.73;;;;;;;2.25;100.00;99648.19;5051347;28;20040;-80
2022/02/20 10:04:43;;;;;;;6.57;4.40;;;;;;;2.21;100.00;99644.16;5035062;28;20028;-79
2022/02/20 10:07:25;;;;;;;6.40;4.40;;;;;;;2.14;100.00;99632.50;5034882;28;20037;-79
2022/02/20 10:09:52;;;;;;;8.10;4.82;;;;;;;2.07;100.00;99635.66;5034194;28;20162;-80
2022/02/20 10:12:19;;;;;;;8.25;4.72;;;;;;;2.04;100.00;99625.41;5034736;28;20436;-80
2022/02/20 10:14:45;;;;;;;10.88;5.10;;;;;;;2.04;100.00;99628.03;5034684;28;20529;-80
2022/02/20 10:17:12;;;;;;;7.70;4.72;;;;;;;2.03;100.00;99617.63;5051567;28;20100;-80
2022/02/20 10:19:59;;;;;;;8.18;5.30;;;;;;;2.23;100.00;99639.56;5051154;28;20048;-79
2022/02/20 10:22:44;;;;;;;9.80;5.00;;;;;;;2.04;100.00;99629.84;5051565;28;20052;-79
2022/02/20 10:25:49;;;;;;;8.45;5.15;;;;;;;2.00;100.00;99618.72;4998599;28;20049;-79
2022/02/20 10:28:32;;;;;;;8.00;5.10;;;;;;;2.11;100.00;99612.53;5010041;28;20132;-77
2022/02/20 10:31:03;;;;;;;8.85;6.18;;;;;;;2.15;100.00;99611.28;5019057;28;20559;-79
2022/02/20 10:33:28;;;;;;;8.60;5.97;;;;;;;2.06;100.00;99596.28;5050375;28;20033;-78
2022/02/20 10:35:54;;;;;;;6.80;4.60;;;;;;;2.04;100.00;99599.06;5033448;28;20644;-78
2022/02/20 10:38:22;;;;;;;8.30;4.85;;;;;;;2.11;100.00;99589.66;5033750;28;20123;-78
2022/02/20 10:40:50;;;;;;;8.65;4.97;;;;;;;2.23;100.00;99595.63;5033710;28;20437;-78
2022/02/20 10:43:33;;;;;;;5.00;4.03;;;;;;;2.39;100.00;99581.94;5051645;28;20375;-78
2022/02/20 10:46:06;;;;;;;8.20;5.50;;;;;;;2.36;100.00;99573.44;5033706;28;20500;-79
2022/02/20 10:48:47;;;;;;;7.70;4.60;;;;;;;2.44;100.00;99556.00;5050593;28;20025;-79
2022/02/20 10:51:16;;;;;;;7.30;5.10;;;;;;;2.49;100.00;99548.50;5052168;28;20037;-79
2022/02/20 10:53:44;;;;;;;8.68;5.22;;;;;;;2.21;100.00;99520.38;5051346;28;20063;-79
2022/02/20 10:56:09;;;;;;;7.20;5.10;;;;;;;2.05;100.00;99503.31;5055051;28;20025;-78
2022/02/20 10:58:47;;;;;;;8.25;5.22;;;;;;;2.03;100.00;99502.63;5038104;28;20067;-79
2022/02/20 11:01:20;;;;;;;7.07;4.68;;;;;;;2.06;100.00;99507.63;5038264;28;20047;-78
2022/02/20 11:03:46;;;;;;;6.35;3.95;;;;;;;2.14;100.00;99508.72;5038221;28;20033;-79
2022/02/20 11:06:15;;;;;;;5.65;3.63;;;;;;;1.90;100.00;99486.28;5055645;28;20025;-80
2022/02/20 11:08:40;;;;;;;9.00;4.13;;;;;;;2.00;100.00;99481.84;5040760;28;20037;-80
2022/02/20 11:11:36;;;;;;;8.48;4.35;;;;;;;1.99;100.00;99480.19;5039492;28;20028;-80
2022/02/20 11:13:55;;;;;;;7.78;4.25;;;;;;;1.80;100.00;99461.72;5055112;28;20053;-79
2022/02/20 11:16:21;;;;;;;4.70;3.00;;;;;;;1.84;100.00;99449.97;5038802;28;20028;-79
2022/02/20 11:18:47;;;;;;;;;;;;;;;1.89;100.00;99464.38;5039872;28;20033;-80
2022/02/20 11:21:13;;;;;;;6.72;3.35;;;;;;;1.91;100.00;99445.81;5039432;28;20310;-79
2022/02/20 11:23:41;;;;;;;6.50;3.63;;;;;;;1.83;100.00;99464.13;5039089;28;20603;-79
2022/02/20 11:26:08;;;;;;;6.13;3.72;;;;;;;1.74;100.00;99446.50;5038949;28;20505;-79
2022/02/20 11:28:38;;;;;;;8.57;4.18;;;;;;;1.81;100.00;99456.34;5036600;28;20485;-78